This is the latest recevied weather packets stored in our database for station/object p43g-13. If no packets are shown the sender has not sent any weather packets the latest 10 day(s).
| Time | Temp. | Humidity | Pressure | Rain* | Wind** | Luminosity | Snow |
|---|---|---|---|---|---|---|---|
| 1787598810 | 31.67° C | 74% | 1009.7 hPa | 0 mm | - | 686 W/m² | - |
| 1787598510 | 32.22° C | 74% | 1010 hPa | 0 mm | - | 753 W/m² | - |
| 1787598246 | 32.22° C | 73% | 1010.2 hPa | 0 mm | - | 731 W/m² | - |
| 1787597910 | 32.22° C | 73% | 1010.6 hPa | 0 mm | - | 749 W/m² | - |
| 1787597610 | 32.22° C | 71% | 1010.6 hPa | 0 mm | - | 762 W/m² | - |
| 1787597310 | 32.22° C | 73% | 1010.2 hPa | 0 mm | - | 807 W/m² | - |
| 1787597010 | 32.22° C | 74% | 1010.6 hPa | 0 mm | - | 781 W/m² | - |
| 1787596711 | 32.78° C | 72% | 1010.6 hPa | 0 mm | - | 792 W/m² | - |
| 1787596409 | 33.33° C | 69% | 1010.6 hPa | 0 mm | - | 807 W/m² | - |
| 1787596109 | 32.78° C | 73% | 1010.4 hPa | 0 mm | - | 814 W/m² | - |
| 1787595810 | 32.22° C | 73% | 1010.6 hPa | 0 mm | - | 723 W/m² | - |
| 1787595509 | 32.78° C | 73% | 1010.7 hPa | 0 mm | - | 857 W/m² | - |
| 1787595209 | 33.33° C | 71% | 1010.8 hPa | 0 mm | - | 915 W/m² | - |
| 1787594909 | 32.22° C | 72% | 1010.9 hPa | 0 mm | - | 872 W/m² | - |
| 1787594609 | 32.22° C | 74% | 1010.8 hPa | 0 mm | - | 901 W/m² | - |
| 1787594309 | 32.22° C | 73% | 1011 hPa | 0 mm | - | 915 W/m² | - |
| 1787594009 | 32.22° C | 74% | 1011.1 hPa | 0 mm | - | 913 W/m² | - |
| 1787593709 | 32.78° C | 72% | 1011.1 hPa | 0 mm | - | 835 W/m² | - |
| 1787593409 | 33.33° C | 72% | 1011.4 hPa | 0 mm | - | 860 W/m² | - |
| 1787593109 | 32.78° C | 73% | 1011.2 hPa | 0 mm | - | 914 W/m² | - |
| 1787592809 | 32.78° C | 71% | 1011.3 hPa | 0 mm | - | 914 W/m² | - |
| 1787592509 | 32.22° C | 74% | 1011.3 hPa | 0 mm | - | 875 W/m² | - |
| 1787592209 | 32.78° C | 72% | 1011.5 hPa | 0 mm | - | 883 W/m² | - |
| 1787591909 | 33.33° C | 71% | 1011.3 hPa | 0 mm | - | 850 W/m² | - |
| 1787591609 | 33.33° C | 70% | 1011.6 hPa | 0 mm | - | 903 W/m² | - |
* Rain latest hour (hover to see other rain measurements)
** Current wind speed in m/s (hover to see current wind gust speed)